Time;durP1;ratioP1;P1;durP2;ratioP2;P2;SDS_P1;SDS_P2;PMS_P1;PMS_P2;Temp;Humidity;BMP_temperature;BMP_pressure;BME280_temperature;BME280_humidity;BME280_pressure;Samples;Min_cycle;Max_cycle;Signal;HPM_P1;HPM_P2
2022/12/30 00:00:57;;;;;;;8.75;7.82;;;5.90;99.90;;;;;;5015911;28;20204;-75
2022/12/30 00:03:22;;;;;;;3.25;2.95;;;5.90;99.90;;;;;;5017437;28;20189;-75
2022/12/30 00:05:48;;;;;;;1.88;1.77;;;6.20;99.90;;;;;;5012584;28;20653;-76
2022/12/30 00:10:58;;;;;;;0.70;0.70;;;6.40;99.90;;;;;;5018150;28;20235;-75
2022/12/30 00:33:08;;;;;;;1.23;0.60;;;6.60;99.90;;;;;;5019915;28;20180;-76
2022/12/30 00:35:39;;;;;;;0.70;0.70;;;6.70;99.90;;;;;;5018543;28;20227;-75
2022/12/30 00:38:05;;;;;;;0.73;0.73;;;6.60;99.90;;;;;;5015375;28;20698;-75
2022/12/30 00:40:31;;;;;;;0.40;0.40;;;6.60;99.90;;;;;;5016460;28;20514;-75
2022/12/30 00:43:09;;;;;;;1.70;0.90;;;6.60;99.90;;;;;;5019871;28;20180;-75
2022/12/30 00:45:38;;;;;;;0.68;0.68;;;6.60;99.90;;;;;;5018200;28;20235;-76
2022/12/30 00:56:17;;;;;;;0.90;0.90;;;6.60;99.90;;;;;;5020418;28;20236;-75
2022/12/30 00:58:43;;;;;;;0.60;0.60;;;6.50;99.90;;;;;;5020450;28;20176;-76
2022/12/30 01:01:08;;;;;;;0.70;0.70;;;6.50;99.90;;;;;;5017997;28;20200;-76
2022/12/30 01:03:34;;;;;;;0.75;0.75;;;6.40;99.90;;;;;;5019977;28;20732;-75
2022/12/30 01:06:08;;;;;;;1.90;0.90;;;6.50;99.90;;;;;;5018182;28;20204;-75
2022/12/30 01:08:34;;;;;;;0.60;0.60;;;6.50;99.90;;;;;;5018872;28;20176;-75
2022/12/30 01:11:07;;;;;;;0.70;0.70;;;6.50;99.90;;;;;;5013639;28;20259;-75
2022/12/30 01:13:33;;;;;;;0.60;0.60;;;6.50;99.90;;;;;;5014079;28;20606;-75
2022/12/30 01:16:09;;;;;;;0.70;0.70;;;6.60;99.90;;;;;;5017700;28;20255;-75
2022/12/30 01:18:36;;;;;;;2.20;0.60;;;6.60;99.90;;;;;;5014659;28;20271;-75
2022/12/30 01:21:02;;;;;;;0.65;0.65;;;6.60;99.90;;;;;;5016609;28;20196;-75
2022/12/30 01:23:27;;;;;;;0.50;0.50;;;6.50;99.90;;;;;;5014758;28;20185;-76
2022/12/30 01:25:53;;;;;;;3.17;0.75;;;6.50;99.90;;;;;;5019970;28;20284;-75
2022/12/30 01:28:19;;;;;;;0.95;0.50;;;6.50;99.90;;;;;;5014093;28;20173;-76
2022/12/30 01:30:44;;;;;;;0.77;0.52;;;6.50;99.90;;;;;;5019905;28;20201;-75
2022/12/30 01:33:10;;;;;;;1.83;0.55;;;6.50;99.90;;;;;;5013658;28;20185;-76
2022/12/30 01:35:36;;;;;;;0.40;0.40;;;6.40;99.90;;;;;;5017110;28;20654;-75
2022/12/30 01:38:01;;;;;;;0.93;0.93;;;6.40;99.90;;;;;;5020242;28;20197;-75
2022/12/30 01:40:27;;;;;;;1.85;1.00;;;6.40;99.90;;;;;;5015095;28;20198;-75
2022/12/30 01:42:53;;;;;;;1.50;0.82;;;6.40;99.90;;;;;;5017410;28;20176;-75
2022/12/30 01:45:25;;;;;;;1.55;0.70;;;6.30;99.90;;;;;;5013877;28;20173;-76
2022/12/30 01:48:23;;;;;;;2.03;0.80;;;6.40;99.90;;;;;;5012313;28;20652;-76
2022/12/30 01:50:56;;;;;;;1.65;1.15;;;6.50;99.90;;;;;;5031922;28;20289;-76
2022/12/30 01:53:24;;;;;;;1.45;0.95;;;6.50;99.90;;;;;;5012233;28;20215;-75
2022/12/30 01:56:08;;;;;;;2.17;0.57;;;6.40;99.90;;;;;;5011557;28;20625;-75
2022/12/30 01:58:40;;;;;;;0.70;0.70;;;6.30;99.90;;;;;;5012301;28;20187;-75
2022/12/30 02:01:05;;;;;;;0.65;0.65;;;6.40;99.90;;;;;;5031012;28;20205;-75
2022/12/30 02:03:38;;;;;;;0.73;0.60;;;6.30;99.90;;;;;;5011686;28;20216;-75
2022/12/30 02:06:05;;;;;;;0.90;0.57;;;6.30;99.90;;;;;;5021384;28;20193;-75
2022/12/30 02:08:34;;;;;;;1.65;0.57;;;6.20;99.90;;;;;;5014603;28;20243;-75
2022/12/30 02:10:59;;;;;;;3.45;0.70;;;6.20;99.90;;;;;;5017437;28;20310;-74
2022/12/30 02:13:25;;;;;;;2.47;0.95;;;6.40;99.90;;;;;;5018086;28;20174;-75
2022/12/30 02:15:59;;;;;;;0.60;0.60;;;6.40;99.90;;;;;;5017486;28;20542;-74
2022/12/30 02:18:33;;;;;;;0.80;0.80;;;6.40;99.90;;;;;;5013939;28;20190;-74
2022/12/30 02:21:23;;;;;;;3.50;1.65;;;6.30;99.90;;;;;;5011783;28;20228;-75
2022/12/30 02:24:09;;;;;;;0.82;0.60;;;6.40;99.90;;;;;;5032583;28;20182;-76
2022/12/30 02:26:59;;;;;;;0.70;0.70;;;6.40;99.90;;;;;;5021631;28;20679;-76
2022/12/30 02:29:45;;;;;;;3.55;0.93;;;6.40;99.90;;;;;;5011378;28;20213;-75
2022/12/30 02:32:38;;;;;;;1.05;0.98;;;6.40;99.90;;;;;;5012557;28;20197;-75
2022/12/30 02:35:19;;;;;;;1.52;0.90;;;6.40;99.90;;;;;;5015743;28;20184;-75
2022/12/30 02:37:51;;;;;;;1.23;0.90;;;6.30;99.90;;;;;;5008957;28;20188;-76
2022/12/30 02:44:36;;;;;;;2.80;1.25;;;6.30;99.90;;;;;;5027857;28;20587;-76
2022/12/30 02:46:12;;;;;;;0.70;0.70;;;6.30;99.90;;;;;;5014246;28;20204;-76
2022/12/30 02:48:40;;;;;;;0.82;0.82;;;6.30;99.90;;;;;;5017410;28;20173;-76
2022/12/30 02:53:51;;;;;;;0.80;0.80;;;6.30;99.90;;;;;;5013139;28;20188;-76
2022/12/30 02:56:16;;;;;;;2.10;1.30;;;6.20;99.90;;;;;;5012099;28;20559;-76
2022/12/30 03:03:56;;;;;;;1.02;0.63;;;6.20;99.90;;;;;;5016982;28;20193;-77
2022/12/30 03:05:24;;;;;;;1.65;1.10;;;6.20;99.90;;;;;;5011006;28;20220;-76
2022/12/30 03:08:10;;;;;;;0.60;0.60;;;6.20;99.90;;;;;;5008904;28;20187;-76
2022/12/30 03:13:38;;;;;;;0.82;0.82;;;6.30;99.90;;;;;;5014546;28;20243;-76
2022/12/30 03:16:39;;;;;;;0.77;0.77;;;6.30;99.90;;;;;;5012755;28;20176;-76
2022/12/30 03:19:17;;;;;;;0.75;0.75;;;6.40;99.90;;;;;;5018186;28;20232;-75
2022/12/30 03:21:45;;;;;;;0.80;0.80;;;6.30;99.90;;;;;;5014212;28;20200;-76
2022/12/30 03:27:03;;;;;;;0.90;0.90;;;6.20;99.90;;;;;;5018181;28;20877;-75
2022/12/30 03:29:49;;;;;;;0.98;0.80;;;6.20;99.90;;;;;;5015255;28;20181;-75
2022/12/30 03:32:17;;;;;;;0.73;0.73;;;6.30;99.90;;;;;;5016374;28;20220;-75
2022/12/30 03:34:45;;;;;;;0.77;0.77;;;6.20;99.90;;;;;;5018813;28;20177;-75
2022/12/30 03:37:18;;;;;;;0.93;0.93;;;6.30;99.90;;;;;;5014080;28;20192;-75
2022/12/30 03:39:56;;;;;;;0.80;0.80;;;6.30;99.90;;;;;;5012560;28;20186;-76
2022/12/30 03:42:22;;;;;;;2.03;0.80;;;6.30;99.90;;;;;;5008717;28;20366;-76
2022/12/30 03:44:50;;;;;;;0.70;0.70;;;6.20;99.90;;;;;;5012687;28;20185;-76
2022/12/30 03:47:18;;;;;;;1.17;1.05;;;6.20;99.90;;;;;;5011182;28;20695;-77
2022/12/30 03:49:44;;;;;;;3.42;1.02;;;6.30;99.90;;;;;;5012404;28;20576;-76
2022/12/30 03:52:11;;;;;;;0.60;0.60;;;6.30;99.90;;;;;;5016632;28;20205;-77
2022/12/30 03:54:37;;;;;;;0.70;0.70;;;6.30;99.90;;;;;;5016203;28;20235;-76
2022/12/30 03:57:03;;;;;;;1.42;1.20;;;6.20;99.90;;;;;;5016943;28;21101;-76
2022/12/30 03:59:29;;;;;;;1.70;1.00;;;6.10;99.90;;;;;;5019319;28;20182;-75
2022/12/30 04:01:54;;;;;;;0.80;0.80;;;6.20;99.90;;;;;;5011132;28;20275;-76
2022/12/30 04:04:20;;;;;;;0.90;0.90;;;6.20;99.90;;;;;;5015327;28;20193;-76
2022/12/30 04:06:46;;;;;;;2.35;1.42;;;6.10;99.90;;;;;;5015060;28;20251;-76
2022/12/30 04:09:12;;;;;;;1.00;0.90;;;6.10;99.90;;;;;;5014036;28;20177;-76
2022/12/30 04:11:37;;;;;;;0.73;0.73;;;6.20;99.90;;;;;;5014662;28;20217;-76
2022/12/30 04:14:03;;;;;;;1.13;0.80;;;6.10;99.90;;;;;;5016030;28;20185;-76
2022/12/30 04:16:29;;;;;;;2.38;0.90;;;6.10;99.90;;;;;;5016523;28;20215;-76
2022/12/30 04:18:54;;;;;;;1.15;1.10;;;6.00;99.90;;;;;;5009580;28;20272;-76
2022/12/30 04:21:20;;;;;;;0.90;0.90;;;5.90;99.90;;;;;;5014275;28;20204;-76
2022/12/30 04:23:46;;;;;;;1.20;1.00;;;5.90;99.90;;;;;;5011715;28;20193;-76
2022/12/30 04:26:11;;;;;;;1.70;0.90;;;5.80;99.90;;;;;;5017006;28;20909;-76
2022/12/30 04:28:37;;;;;;;1.08;1.08;;;5.70;99.90;;;;;;5011438;28;20272;-76
2022/12/30 04:31:03;;;;;;;0.82;0.82;;;5.80;99.90;;;;;;5014211;28;20200;-76
2022/12/30 04:33:29;;;;;;;1.42;0.90;;;5.90;99.90;;;;;;5011498;28;20552;-76
2022/12/30 04:35:54;;;;;;;1.60;0.85;;;5.90;99.90;;;;;;5018342;28;20535;-76
2022/12/30 04:38:20;;;;;;;1.45;1.00;;;5.80;99.90;;;;;;5012343;28;20216;-76
2022/12/30 04:40:46;;;;;;;0.70;0.70;;;5.80;99.90;;;;;;5010189;28;20200;-76
2022/12/30 04:43:11;;;;;;;2.38;1.67;;;5.80;99.90;;;;;;5017389;28;20239;-76
2022/12/30 04:45:37;;;;;;;0.90;0.90;;;5.70;99.90;;;;;;5017289;28;20248;-76
2022/12/30 04:48:03;;;;;;;1.17;1.08;;;5.80;99.90;;;;;;5009073;28;20189;-76
2022/12/30 04:50:28;;;;;;;2.75;1.13;;;5.80;99.90;;;;;;5018131;28;20241;-76
2022/12/30 04:52:54;;;;;;;1.08;1.08;;;5.90;99.90;;;;;;5018179;28;20189;-76
2022/12/30 04:55:20;;;;;;;0.90;0.90;;;5.90;99.90;;;;;;5020993;28;20184;-75
2022/12/30 04:57:45;;;;;;;0.93;0.93;;;5.90;99.90;;;;;;5016228;28;20181;-75
2022/12/30 05:00:11;;;;;;;1.20;1.20;;;5.90;99.90;;;;;;5019405;28;20670;-76
2022/12/30 05:02:37;;;;;;;2.17;1.20;;;5.90;99.90;;;;;;5017305;28;20674;-76
2022/12/30 05:05:03;;;;;;;1.25;1.25;;;5.80;99.90;;;;;;5011774;28;20207;-76
2022/12/30 05:07:29;;;;;;;1.17;1.17;;;5.70;99.90;;;;;;5015193;28;20307;-76
2022/12/30 05:09:55;;;;;;;1.15;1.15;;;5.70;99.90;;;;;;5021383;28;20291;-76
2022/12/30 05:12:20;;;;;;;1.88;1.42;;;5.60;99.90;;;;;;5018834;28;20197;-76
2022/12/30 05:14:46;;;;;;;1.27;1.17;;;5.50;99.90;;;;;;5016095;28;20180;-76
2022/12/30 05:17:11;;;;;;;1.10;1.10;;;5.60;99.90;;;;;;5013424;28;20185;-76
2022/12/30 05:19:37;;;;;;;1.05;1.05;;;5.70;99.90;;;;;;5021114;28;20189;-76
2022/12/30 05:22:03;;;;;;;2.03;1.20;;;5.70;99.90;;;;;;5019279;28;20201;-76
2022/12/30 05:27:12;;;;;;;1.30;1.30;;;5.80;99.90;;;;;;5014154;28;20663;-76
2022/12/30 05:29:38;;;;;;;1.08;1.08;;;5.80;99.90;;;;;;5013870;28;20169;-76
2022/12/30 05:32:03;;;;;;;1.30;1.17;;;5.80;99.90;;;;;;5022496;28;20205;-76
2022/12/30 05:34:29;;;;;;;1.23;1.20;;;5.90;99.90;;;;;;5015966;28;20218;-76
2022/12/30 05:36:55;;;;;;;0.98;0.98;;;5.80;99.90;;;;;;5009382;28;20246;-76
2022/12/30 05:39:20;;;;;;;1.15;1.10;;;5.90;99.90;;;;;;5012567;28;20559;-76
2022/12/30 05:41:46;;;;;;;1.17;1.08;;;5.80;99.90;;;;;;5015394;28;20627;-76
2022/12/30 05:44:11;;;;;;;1.65;1.17;;;5.80;99.90;;;;;;5019719;28;20174;-76
2022/12/30 05:46:37;;;;;;;1.27;1.20;;;5.80;99.90;;;;;;5016338;28;20240;-75
2022/12/30 05:49:03;;;;;;;1.20;1.20;;;5.70;99.90;;;;;;5014079;28;20260;-76
2022/12/30 05:51:29;;;;;;;1.50;1.40;;;5.60;99.90;;;;;;5014986;28;20225;-76
2022/12/30 05:53:55;;;;;;;1.15;1.15;;;5.50;99.90;;;;;;5016197;28;20220;-76
2022/12/30 05:56:21;;;;;;;1.48;1.38;;;5.40;99.90;;;;;;5011798;28;20192;-76
2022/12/30 05:58:46;;;;;;;1.67;1.58;;;5.30;99.90;;;;;;5021412;28;20172;-76
2022/12/30 06:01:12;;;;;;;1.55;1.45;;;5.20;99.90;;;;;;5022363;28;20815;-76
2022/12/30 06:03:38;;;;;;;1.60;1.50;;;5.10;99.90;;;;;;5013120;28;20205;-76
2022/12/30 06:06:06;;;;;;;1.83;1.65;;;5.00;99.90;;;;;;5011411;28;20205;-76
2022/12/30 06:08:33;;;;;;;2.03;1.55;;;4.90;99.90;;;;;;5015486;28;20203;-76
2022/12/30 06:10:59;;;;;;;1.35;1.35;;;4.80;99.90;;;;;;5011354;28;20198;-76
2022/12/30 06:13:24;;;;;;;2.35;2.10;;;4.80;99.90;;;;;;5012966;28;20181;-76
2022/12/30 06:15:51;;;;;;;2.65;1.80;;;4.70;99.90;;;;;;5010806;28;20185;-75
2022/12/30 06:18:16;;;;;;;3.65;1.90;;;4.50;99.90;;;;;;5015780;28;20184;-76
2022/12/30 06:20:44;;;;;;;2.10;2.00;;;4.40;99.90;;;;;;5012759;28;20216;-75
2022/12/30 06:23:10;;;;;;;1.45;1.35;;;4.30;99.90;;;;;;5017165;28;20271;-76
2022/12/30 06:25:35;;;;;;;2.45;1.95;;;4.40;99.90;;;;;;5014792;28;20269;-75
2022/12/30 06:28:01;;;;;;;2.72;1.88;;;4.40;99.90;;;;;;5013138;28;20668;-76
2022/12/30 06:30:26;;;;;;;2.15;1.70;;;4.50;99.90;;;;;;5011213;28;20198;-75
2022/12/30 06:32:55;;;;;;;1.85;1.70;;;4.50;99.90;;;;;;5020395;28;20180;-76
2022/12/30 06:35:21;;;;;;;1.65;1.55;;;4.50;99.90;;;;;;5016999;28;20673;-76
2022/12/30 06:37:47;;;;;;;4.15;2.08;;;4.50;99.90;;;;;;5016164;28;20181;-75
2022/12/30 06:40:13;;;;;;;1.85;1.75;;;4.50;99.90;;;;;;5008086;28;20181;-75
2022/12/30 06:42:38;;;;;;;1.98;1.77;;;4.40;99.90;;;;;;5015837;28;20224;-76
2022/12/30 06:45:05;;;;;;;2.50;1.70;;;4.50;99.90;;;;;;5024344;28;20197;-75
2022/12/30 06:47:31;;;;;;;2.53;2.33;;;4.40;99.90;;;;;;5016270;28;20597;-76
2022/12/30 06:49:57;;;;;;;2.22;1.73;;;4.40;99.90;;;;;;5021298;28;20219;-76
2022/12/30 06:52:22;;;;;;;1.90;1.80;;;4.30;99.90;;;;;;5017514;28;20208;-76
2022/12/30 06:54:48;;;;;;;1.67;1.60;;;4.20;99.90;;;;;;5021684;28;20173;-75
2022/12/30 06:57:14;;;;;;;2.10;1.88;;;4.10;99.90;;;;;;5011201;28;20177;-75
2022/12/30 06:59:39;;;;;;;3.53;1.92;;;4.10;99.90;;;;;;5009063;28;20193;-76
2022/12/30 07:02:06;;;;;;;1.85;1.75;;;4.10;99.90;;;;;;5007479;28;20223;-76
2022/12/30 07:04:31;;;;;;;2.08;1.90;;;4.10;99.90;;;;;;5009970;28;20227;-76
2022/12/30 07:06:57;;;;;;;2.08;1.98;;;4.10;99.90;;;;;;5009171;28;20248;-76
2022/12/30 07:09:22;;;;;;;2.00;1.90;;;4.00;99.90;;;;;;5007719;28;20188;-75
2022/12/30 07:11:48;;;;;;;2.33;1.90;;;4.10;99.90;;;;;;5009997;28;20279;-76
2022/12/30 07:14:14;;;;;;;1.70;1.60;;;4.10;99.90;;;;;;5010489;28;20192;-76
2022/12/30 07:16:39;;;;;;;2.10;2.00;;;4.20;99.90;;;;;;5008909;28;20204;-75
2022/12/30 07:19:05;;;;;;;2.97;2.67;;;4.20;99.90;;;;;;5006266;28;20215;-76
2022/12/30 07:21:32;;;;;;;2.90;2.70;;;4.30;99.90;;;;;;5006839;28;20274;-76
2022/12/30 07:23:58;;;;;;;2.70;2.50;;;4.40;99.90;;;;;;5013375;28;20639;-75
2022/12/30 07:26:24;;;;;;;4.57;2.70;;;4.40;99.90;;;;;;5010597;28;20253;-76
2022/12/30 07:28:55;;;;;;;4.32;2.95;;;4.50;99.90;;;;;;5011336;28;20567;-75
2022/12/30 07:31:20;;;;;;;3.55;3.17;;;4.60;99.90;;;;;;5006761;28;20232;-75
2022/12/30 07:33:46;;;;;;;5.22;3.40;;;4.70;99.90;;;;;;5008959;28;20220;-76
2022/12/30 07:36:12;;;;;;;3.63;3.30;;;4.70;99.90;;;;;;5010569;28;20192;-75
2022/12/30 07:38:38;;;;;;;3.30;3.03;;;4.70;99.90;;;;;;5008982;28;20678;-76
2022/12/30 07:41:04;;;;;;;4.53;3.63;;;4.90;99.90;;;;;;5010132;28;20209;-76
2022/12/30 07:43:30;;;;;;;3.97;3.38;;;5.00;99.90;;;;;;5010056;28;20177;-75
2022/12/30 07:45:56;;;;;;;3.67;3.30;;;5.10;99.90;;;;;;5008080;28;20196;-75
2022/12/30 07:48:21;;;;;;;5.57;3.75;;;5.10;99.90;;;;;;5011279;28;20185;-75
2022/12/30 07:50:47;;;;;;;3.75;3.42;;;5.10;99.90;;;;;;5009952;28;20208;-76
2022/12/30 07:53:12;;;;;;;4.75;4.13;;;5.20;99.90;;;;;;5012610;28;20218;-76
2022/12/30 07:55:39;;;;;;;4.00;3.70;;;5.20;99.90;;;;;;5011511;28;20170;-76
2022/12/30 07:58:06;;;;;;;4.28;3.88;;;5.30;99.90;;;;;;5014862;28;20181;-75
2022/12/30 08:00:32;;;;;;;4.13;3.55;;;5.30;99.90;;;;;;5014284;28;20240;-76
2022/12/30 08:02:58;;;;;;;4.07;3.00;;;5.40;99.90;;;;;;5011259;28;20185;-75
2022/12/30 08:05:23;;;;;;;3.67;3.45;;;5.50;99.90;;;;;;5014649;28;20184;-75
2022/12/30 08:07:52;;;;;;;4.70;3.03;;;5.50;99.90;;;;;;5013862;28;20205;-77
2022/12/30 08:10:19;;;;;;;3.33;3.03;;;5.60;99.90;;;;;;5016755;28;20185;-75
2022/12/30 08:12:45;;;;;;;2.97;2.67;;;5.40;99.90;;;;;;5010370;28;20554;-74
2022/12/30 08:15:12;;;;;;;3.35;3.10;;;5.30;99.90;;;;;;5013896;28;20532;-75
2022/12/30 08:17:37;;;;;;;3.13;2.92;;;5.30;99.90;;;;;;5018096;28;20178;-75
2022/12/30 08:20:04;;;;;;;3.45;3.15;;;5.40;99.90;;;;;;5017037;28;20193;-75
2022/12/30 08:22:29;;;;;;;3.00;2.80;;;5.60;99.90;;;;;;5024123;28;20192;-75
2022/12/30 08:24:55;;;;;;;2.97;2.78;;;5.70;99.90;;;;;;5020451;28;20181;-76
2022/12/30 08:27:20;;;;;;;3.03;2.75;;;5.90;99.90;;;;;;5015883;28;20196;-75
2022/12/30 08:29:46;;;;;;;2.78;2.58;;;6.00;99.90;;;;;;5016800;28;20216;-75
2022/12/30 08:32:11;;;;;;;2.60;2.40;;;6.10;99.90;;;;;;5013213;28;20197;-75
2022/12/30 08:34:37;;;;;;;2.83;2.63;;;6.30;99.90;;;;;;5011165;28;20188;-75
2022/12/30 08:37:03;;;;;;;4.40;2.58;;;6.40;99.90;;;;;;5014537;28;20181;-75
2022/12/30 08:39:28;;;;;;;2.55;2.40;;;6.50;99.90;;;;;;5014500;28;20602;-74
2022/12/30 08:41:54;;;;;;;2.20;2.10;;;6.60;99.90;;;;;;5013341;28;20659;-74
2022/12/30 08:44:19;;;;;;;2.50;2.30;;;6.80;99.90;;;;;;5018350;28;20235;-74
2022/12/30 08:46:45;;;;;;;3.15;2.00;;;7.00;99.90;;;;;;5018180;28;20566;-75
2022/12/30 08:49:11;;;;;;;2.30;2.15;;;7.00;99.90;;;;;;5017108;28;20260;-76
2022/12/30 08:51:38;;;;;;;1.83;1.73;;;7.10;99.90;;;;;;5028143;28;20196;-74
2022/12/30 08:54:04;;;;;;;2.10;2.00;;;7.00;99.90;;;;;;5012054;28;20181;-76
2022/12/30 08:56:32;;;;;;;2.03;1.92;;;7.30;99.90;;;;;;5019909;28;20193;-76
2022/12/30 08:58:59;;;;;;;1.98;1.90;;;7.50;99.90;;;;;;5021829;28;20212;-76
2022/12/30 09:01:28;;;;;;;2.80;2.10;;;7.70;99.90;;;;;;5019302;28;20198;-76
2022/12/30 09:03:54;;;;;;;2.45;2.30;;;7.80;99.90;;;;;;5014417;28;20189;-77
2022/12/30 09:06:23;;;;;;;1.90;1.80;;;8.00;99.90;;;;;;5007546;28;20204;-77
2022/12/30 09:08:49;;;;;;;2.13;1.95;;;8.30;99.90;;;;;;5012566;28;20683;-76
2022/12/30 09:11:29;;;;;;;2.35;2.17;;;8.80;99.90;;;;;;5015016;28;20241;-76
2022/12/30 09:13:55;;;;;;;1.75;1.75;;;9.10;99.90;;;;;;5014441;28;20192;-76
2022/12/30 09:16:21;;;;;;;3.42;1.50;;;9.40;99.90;;;;;;5010367;28;20178;-78
2022/12/30 09:18:48;;;;;;;1.83;1.73;;;10.00;99.90;;;;;;5019453;28;20656;-75
2022/12/30 09:21:13;;;;;;;1.77;1.67;;;10.60;99.90;;;;;;5013891;28;20298;-75
2022/12/30 09:23:39;;;;;;;1.70;1.60;;;10.80;99.90;;;;;;5012490;28;22154;-76
2022/12/30 09:26:06;;;;;;;1.63;1.52;;;10.70;99.90;;;;;;5015667;28;20220;-76
2022/12/30 09:28:32;;;;;;;1.70;1.60;;;10.70;99.90;;;;;;5010274;28;20185;-76
2022/12/30 09:30:58;;;;;;;1.35;1.30;;;10.80;99.90;;;;;;5014419;28;20693;-75
2022/12/30 09:33:24;;;;;;;1.63;1.52;;;10.70;99.90;;;;;;5012195;28;20177;-76
2022/12/30 09:35:50;;;;;;;1.23;1.23;;;10.80;99.90;;;;;;5017051;28;20228;-76
2022/12/30 09:38:15;;;;;;;1.42;1.38;;;10.90;99.90;;;;;;5012667;28;20181;-74
2022/12/30 09:40:48;;;;;;;1.55;1.40;;;11.30;99.90;;;;;;5008903;28;20245;-75
2022/12/30 09:43:55;;;;;;;0.98;0.98;;;11.40;99.90;;;;;;5015542;28;20593;-75
2022/12/30 09:46:48;;;;;;;1.67;1.58;;;11.40;99.90;;;;;;5013420;28;20205;-75
2022/12/30 09:49:32;;;;;;;1.50;1.40;;;11.30;99.90;;;;;;5016499;28;20241;-75
2022/12/30 09:52:11;;;;;;;1.58;1.48;;;10.90;99.90;;;;;;5013435;28;20263;-74
2022/12/30 09:54:40;;;;;;;1.88;1.73;;;10.50;99.90;;;;;;5015553;28;20652;-78
2022/12/30 09:59:56;;;;;;;1.65;1.55;;;10.30;99.90;;;;;;5012303;28;20277;-75
2022/12/30 10:02:43;;;;;;;1.70;1.60;;;10.20;99.90;;;;;;5013159;28;20201;-75
2022/12/30 10:05:13;;;;;;;2.13;1.92;;;10.20;99.90;;;;;;5014276;28;20691;-74
2022/12/30 10:08:05;;;;;;;2.17;1.48;;;10.40;99.90;;;;;;5014783;28;20281;-75
2022/12/30 10:10:39;;;;;;;1.50;1.42;;;10.60;99.90;;;;;;5013814;28;20197;-76
2022/12/30 10:13:38;;;;;;;2.00;1.90;;;10.60;99.90;;;;;;5015254;28;20180;-75
2022/12/30 10:16:16;;;;;;;2.20;2.00;;;10.60;99.90;;;;;;5014030;28;20621;-75
2022/12/30 10:18:47;;;;;;;2.05;1.95;;;10.40;99.90;;;;;;5013801;28;20244;-75
2022/12/30 10:21:43;;;;;;;1.90;1.80;;;10.30;99.90;;;;;;5017682;28;20257;-75
2022/12/30 10:24:38;;;;;;;2.05;1.88;;;10.30;99.90;;;;;;5010839;28;20197;-75
2022/12/30 10:27:20;;;;;;;1.65;1.60;;;10.20;99.90;;;;;;5019106;28;20201;-77
2022/12/30 10:29:46;;;;;;;1.55;1.55;;;10.10;99.90;;;;;;5012039;28;20281;-75
2022/12/30 10:32:19;;;;;;;1.92;1.83;;;10.20;99.90;;;;;;5013494;28;20604;-75
2022/12/30 10:34:46;;;;;;;2.22;1.90;;;10.50;99.90;;;;;;5016873;28;20177;-75
2022/12/30 10:37:20;;;;;;;2.38;1.55;;;11.10;99.90;;;;;;5012213;28;20183;-75
2022/12/30 10:39:49;;;;;;;1.52;1.52;;;11.70;99.90;;;;;;5010647;28;20191;-76
2022/12/30 10:42:34;;;;;;;1.83;1.73;;;14.30;99.90;;;;;;5008945;28;20279;-76
2022/12/30 10:45:20;;;;;;;2.20;1.67;;;15.80;99.90;;;;;;5015083;28;20195;-74
2022/12/30 10:47:55;;;;;;;2.03;1.88;;;15.90;99.90;;;;;;5013079;28;20212;-75
2022/12/30 10:50:29;;;;;;;2.15;1.95;;;15.70;99.90;;;;;;5009312;28;20179;-76
2022/12/30 10:52:55;;;;;;;1.63;1.63;;;15.40;99.90;;;;;;5016040;28;20173;-75
2022/12/30 10:55:26;;;;;;;1.20;1.20;;;15.10;99.90;;;;;;5016347;28;20659;-75
2022/12/30 10:58:26;;;;;;;2.00;1.90;;;16.10;99.90;;;;;;5012462;28;20189;-75
2022/12/30 11:00:53;;;;;;;1.67;1.58;;;16.90;99.90;;;;;;5027314;28;20213;-75
2022/12/30 11:03:25;;;;;;;1.30;1.30;;;18.10;99.90;;;;;;5013771;28;20205;-75
2022/12/30 11:05:50;;;;;;;1.40;1.40;;;19.70;99.90;;;;;;5010680;28;20624;-75
2022/12/30 11:08:24;;;;;;;1.10;1.10;;;21.50;97.60;;;;;;5008222;28;20275;-75
2022/12/30 11:11:05;;;;;;;1.33;1.20;;;21.30;90.80;;;;;;5010028;28;20570;-75
2022/12/30 11:16:22;;;;;;;0.95;0.95;;;19.40;92.40;;;;;;5011639;28;20277;-75
2022/12/30 11:18:48;;;;;;;0.50;0.50;;;20.70;92.50;;;;;;5011277;28;20172;-75
2022/12/30 11:21:24;;;;;;;0.98;0.70;;;22.10;85.00;;;;;;5019122;28;20351;-75
2022/12/30 11:23:53;;;;;;;0.80;0.80;;;23.20;84.00;;;;;;5008868;28;20184;-76
2022/12/30 11:26:22;;;;;;;0.70;0.70;;;23.40;81.60;;;;;;5013354;28;20207;-75
2022/12/30 11:29:02;;;;;;;0.52;0.52;;;24.20;77.30;;;;;;5012735;28;20173;-76
2022/12/30 11:31:34;;;;;;;0.57;0.57;;;24.90;74.50;;;;;;5011556;28;20236;-75
2022/12/30 11:34:03;;;;;;;0.75;0.75;;;24.10;71.40;;;;;;5013243;28;20200;-75
2022/12/30 11:36:30;;;;;;;0.55;0.55;;;22.70;70.80;;;;;;5014924;28;20173;-76
2022/12/30 11:39:17;;;;;;;0.93;0.93;;;21.20;74.60;;;;;;5015478;28;20639;-76
2022/12/30 11:41:49;;;;;;;1.00;0.70;;;20.30;79.00;;;;;;5015419;28;20221;-76
2022/12/30 11:44:20;;;;;;;0.88;0.82;;;18.90;82.80;;;;;;5013332;28;20549;-75
2022/12/30 11:46:55;;;;;;;1.02;1.02;;;18.70;83.40;;;;;;5018309;28;20193;-75
2022/12/30 11:49:59;;;;;;;0.57;0.57;;;20.60;82.10;;;;;;5011598;28;20195;-76
2022/12/30 11:52:26;;;;;;;1.35;0.57;;;22.70;76.40;;;;;;5014820;28;20220;-76
2022/12/30 11:55:02;;;;;;;0.52;0.52;;;24.50;67.60;;;;;;5016030;28;20587;-75
2022/12/30 11:57:36;;;;;;;0.55;0.55;;;25.90;66.00;;;;;;5015370;28;20216;-76
2022/12/30 12:00:43;;;;;;;0.80;0.80;;;26.70;60.40;;;;;;5017626;28;20184;-76
2022/12/30 12:03:15;;;;;;;0.75;0.73;;;27.50;57.90;;;;;;5013076;28;20231;-76
2022/12/30 12:05:43;;;;;;;0.60;0.60;;;28.50;57.50;;;;;;5015108;28;20185;-77
2022/12/30 12:08:22;;;;;;;0.75;0.75;;;28.70;57.40;;;;;;5016077;28;20185;-78
2022/12/30 12:10:53;;;;;;;0.75;0.75;;;27.20;55.90;;;;;;5016060;28;20240;-76
2022/12/30 12:13:33;;;;;;;0.95;0.95;;;25.10;61.20;;;;;;5014899;28;20173;-76
2022/12/30 12:16:00;;;;;;;0.95;0.95;;;23.20;65.70;;;;;;5016896;28;20691;-76
2022/12/30 12:18:34;;;;;;;0.60;0.60;;;21.60;68.70;;;;;;5012085;28;20181;-77
2022/12/30 12:21:25;;;;;;;0.88;0.88;;;20.10;69.90;;;;;;5020000;28;20249;-76
2022/12/30 12:24:19;;;;;;;1.33;1.23;;;18.70;73.80;;;;;;5017037;28;20181;-76
2022/12/30 12:27:05;;;;;;;0.70;0.70;;;19.10;78.60;;;;;;5022651;28;20698;-76
2022/12/30 12:29:33;;;;;;;1.35;0.80;;;21.40;71.90;;;;;;5014591;28;20181;-77
2022/12/30 12:32:12;;;;;;;0.63;0.63;;;22.70;68.00;;;;;;5015422;28;20197;-76
2022/12/30 12:34:57;;;;;;;0.80;0.80;;;22.70;65.00;;;;;;5015135;28;20568;-77
2022/12/30 12:37:28;;;;;;;0.60;0.60;;;23.10;65.00;;;;;;5011284;28;20190;-77
2022/12/30 12:39:57;;;;;;;0.75;0.70;;;23.00;65.10;;;;;;5011618;28;20185;-78
2022/12/30 12:43:02;;;;;;;0.95;0.95;;;22.40;66.20;;;;;;5015441;28;20233;-77
2022/12/30 12:45:36;;;;;;;0.75;0.75;;;22.90;66.90;;;;;;5018209;28;20189;-77
2022/12/30 12:48:40;;;;;;;0.82;0.75;;;23.20;64.20;;;;;;5020963;28;20219;-77
2022/12/30 12:51:27;;;;;;;0.98;0.90;;;22.80;63.80;;;;;;5016889;28;20675;-77
2022/12/30 12:54:31;;;;;;;1.00;0.90;;;21.40;66.10;;;;;;5014817;28;20201;-79
2022/12/30 12:57:15;;;;;;;0.70;0.70;;;20.40;69.70;;;;;;5022818;28;20219;-79
2022/12/30 12:59:56;;;;;;;0.75;0.75;;;20.50;70.40;;;;;;5016096;28;20181;-79
2022/12/30 13:02:33;;;;;;;1.05;0.80;;;20.30;70.60;;;;;;5018725;28;20220;-77
2022/12/30 13:05:15;;;;;;;0.73;0.73;;;20.40;70.90;;;;;;5016898;28;20188;-77
2022/12/30 13:08:05;;;;;;;0.88;0.88;;;20.70;70.30;;;;;;5021121;28;20604;-77
2022/12/30 13:10:50;;;;;;;1.30;0.90;;;20.80;70.20;;;;;;5015617;28;20204;-77
2022/12/30 13:13:22;;;;;;;1.60;0.50;;;20.80;69.80;;;;;;5016403;28;20177;-79
2022/12/30 13:15:56;;;;;;;0.88;0.88;;;20.90;68.70;;;;;;5014279;28;20169;-77
2022/12/30 13:18:25;;;;;;;1.65;0.85;;;20.80;70.70;;;;;;5016186;28;20172;-78
2022/12/30 13:21:03;;;;;;;0.90;0.90;;;20.60;69.80;;;;;;5018651;28;20212;-78
2022/12/30 13:23:33;;;;;;;0.88;0.77;;;20.20;70.70;;;;;;5019301;28;20165;-79
2022/12/30 13:26:04;;;;;;;1.00;0.98;;;19.40;72.10;;;;;;5014835;28;20173;-78
2022/12/30 13:28:32;;;;;;;0.95;0.70;;;19.00;73.10;;;;;;5025589;28;20250;-76
2022/12/30 13:31:05;;;;;;;0.60;0.60;;;18.90;73.80;;;;;;5016210;28;20196;-78
2022/12/30 13:33:52;;;;;;;1.20;1.20;;;18.50;75.40;;;;;;5015506;28;20770;-78
2022/12/30 13:36:32;;;;;;;0.68;0.68;;;18.40;75.80;;;;;;5016315;28;20235;-79
2022/12/30 13:39:17;;;;;;;0.80;0.80;;;18.00;75.90;;;;;;5013213;28;20180;-80
2022/12/30 13:42:10;;;;;;;1.02;0.90;;;17.40;78.50;;;;;;5026363;28;20208;-79
2022/12/30 13:44:42;;;;;;;1.70;1.00;;;16.60;79.10;;;;;;5013435;28;20178;-79
2022/12/30 13:47:34;;;;;;;0.80;0.80;;;15.70;81.60;;;;;;5021814;28;20215;-81
2022/12/30 13:50:01;;;;;;;0.93;0.93;;;15.00;86.30;;;;;;5036862;28;20203;-80
2022/12/30 13:52:28;;;;;;;2.05;1.00;;;14.50;89.10;;;;;;5018210;28;20275;-79
2022/12/30 13:54:59;;;;;;;1.17;1.13;;;14.00;90.30;;;;;;5009255;28;20173;-79
2022/12/30 13:57:40;;;;;;;1.80;1.20;;;13.40;91.20;;;;;;5019322;28;20173;-79
2022/12/30 14:00:11;;;;;;;1.23;1.20;;;12.80;94.00;;;;;;5018020;28;20188;-81
2022/12/30 14:02:42;;;;;;;1.50;1.40;;;12.50;96.40;;;;;;5023274;28;20185;-79
2022/12/30 14:05:39;;;;;;;1.88;1.77;;;12.20;96.40;;;;;;5032154;28;20197;-79
2022/12/30 14:08:24;;;;;;;1.63;1.52;;;12.10;99.70;;;;;;5031923;28;20240;-79